Wrights Corner, Illinois
Current Conditions -  °F | °C
As of 7:15 AM on Thursday 27 Nov 2014 (Local Time) from K1H2 Reporting Station
Broken Clouds Broken Clouds  
Wind Chill: 12°   Ceiling: 6500
Heat Index: 21°   Visibility: 7mi
Dew Point: 16°   Wind: 7mph
Humidity: 80%   Direction: 290°WNW
Pressure: 30.38"   Gusts: NA
Location:  39.1767°N, 88.8216°W
Report Text: K1H2 271315Z AUTO 29006KT 7SM BKN065 M06/M09 A3038 RMK AO2 T10611090
Loading
Personal Weather Stations






























Interactive Weather Map New forecast layout! Learn more

10-Day Weather Forecast

Advertisements
Track Severe Weather on mobile